Time;durP1;ratioP1;P1;durP2;ratioP2;P2;SDS_P1;SDS_P2;PMS_P1;PMS_P2;Temp;Humidity;BMP_temperature;BMP_pressure;BME280_temperature;BME280_humidity;BME280_pressure;Samples;Min_cycle;Max_cycle;Signal;HPM_P1;HPM_P2
2022/04/13 00:00:32;;;;;;;7.30;3.50;;;14.30;69.70;;;;;;5033403;28;20837;-80
2022/04/13 00:02:58;;;;;;;11.20;4.30;;;14.30;69.80;;;;;;5032266;28;20423;-78
2022/04/13 00:05:24;;;;;;;6.27;3.97;;;14.30;69.80;;;;;;5041986;28;20504;-80
2022/04/13 00:07:51;;;;;;;7.90;4.40;;;14.30;69.70;;;;;;5032244;28;20416;-79
2022/04/13 00:10:16;;;;;;;8.97;3.97;;;14.30;69.40;;;;;;5035685;28;20420;-78
2022/04/13 00:12:42;;;;;;;11.47;5.70;;;14.30;69.40;;;;;;5033067;28;20412;-81
2022/04/13 00:15:09;;;;;;;7.90;4.73;;;14.20;70.80;;;;;;5032800;28;20260;-80
2022/04/13 00:17:36;;;;;;;7.33;4.97;;;14.20;71.40;;;;;;5042462;28;20272;-80
2022/04/13 00:20:07;;;;;;;7.77;3.90;;;14.20;72.00;;;;;;5039192;28;20432;-79
2022/04/13 00:22:33;;;;;;;6.20;4.47;;;14.20;72.00;;;;;;5033565;28;20431;-79
2022/04/13 00:24:58;;;;;;;7.43;4.80;;;14.10;72.00;;;;;;5040839;28;20417;-78
2022/04/13 00:27:24;;;;;;;6.60;4.23;;;14.10;72.10;;;;;;5033289;28;20424;-79
2022/04/13 00:29:50;;;;;;;4.93;3.40;;;14.10;72.30;;;;;;5028089;28;20213;-79
2022/04/13 00:32:16;;;;;;;6.67;3.30;;;14.10;72.10;;;;;;5039277;28;20244;-79
2022/04/13 00:34:41;;;;;;;9.50;4.00;;;14.10;72.00;;;;;;5040867;28;20226;-78
2022/04/13 00:37:08;;;;;;;7.50;3.80;;;14.10;71.80;;;;;;5032841;28;20204;-80
2022/04/13 00:39:33;;;;;;;4.77;3.20;;;14.00;71.80;;;;;;5032010;28;20201;-79
2022/04/13 00:42:03;;;;;;;5.87;4.00;;;14.00;71.70;;;;;;5039117;28;20445;-79
2022/04/13 00:44:29;;;;;;;5.40;3.60;;;14.00;71.80;;;;;;5035600;28;20216;-80
2022/04/13 00:46:56;;;;;;;6.47;3.43;;;14.00;71.60;;;;;;5036636;28;20450;-81
2022/04/13 00:49:23;;;;;;;7.70;3.53;;;14.00;71.10;;;;;;5034018;28;20477;-78
2022/04/13 00:51:52;;;;;;;6.30;3.60;;;14.00;70.70;;;;;;5032981;28;20978;-81
2022/04/13 00:54:19;;;;;;;6.23;3.20;;;14.00;71.10;;;;;;5033730;28;20860;-81
2022/04/13 00:56:48;;;;;;;4.80;3.30;;;13.90;71.00;;;;;;5031918;28;20432;-80
2022/04/13 00:59:15;;;;;;;7.40;3.17;;;13.80;71.30;;;;;;5031477;28;20455;-79
2022/04/13 01:01:46;;;;;;;5.90;3.20;;;13.80;71.60;;;;;;5031598;28;20416;-81
2022/04/13 01:04:13;;;;;;;6.43;3.97;;;13.70;71.70;;;;;;5031946;28;20435;-79
2022/04/13 01:06:40;;;;;;;5.50;4.10;;;13.70;71.80;;;;;;5030519;28;20490;-80
2022/04/13 01:09:05;;;;;;;8.60;4.33;;;13.70;73.00;;;;;;5032503;28;20473;-82
2022/04/13 01:11:31;;;;;;;4.87;3.37;;;13.60;73.60;;;;;;5030708;28;20419;-78
2022/04/13 01:13:58;;;;;;;7.80;3.70;;;13.50;74.00;;;;;;5030234;28;20529;-80
2022/04/13 01:16:25;;;;;;;6.17;2.97;;;13.40;74.30;;;;;;5033041;28;20220;-79
2022/04/13 01:18:52;;;;;;;10.30;4.87;;;13.40;74.30;;;;;;5031707;28;20889;-77
2022/04/13 01:21:19;;;;;;;6.00;3.67;;;13.30;74.60;;;;;;5031663;28;20435;-80
2022/04/13 01:23:46;;;;;;;6.30;3.30;;;13.20;75.50;;;;;;5031065;28;20486;-80
2022/04/13 01:26:12;;;;;;;6.47;3.70;;;13.30;75.20;;;;;;5033021;28;21336;-80
2022/04/13 01:28:38;;;;;;;6.07;3.73;;;13.20;74.60;;;;;;5037496;28;20454;-79
2022/04/13 01:31:04;;;;;;;8.03;5.00;;;13.20;74.30;;;;;;5035906;28;20428;-79
2022/04/13 01:33:31;;;;;;;6.40;3.80;;;13.10;73.90;;;;;;5032236;28;20913;-79
2022/04/13 01:36:00;;;;;;;9.13;4.97;;;13.10;74.20;;;;;;5035055;28;20506;-79
2022/04/13 01:38:30;;;;;;;9.97;5.23;;;13.10;74.20;;;;;;5039647;28;20468;-81
2022/04/13 01:40:57;;;;;;;7.20;3.73;;;13.10;74.20;;;;;;5037291;28;20416;-79
2022/04/13 01:43:24;;;;;;;9.23;4.50;;;13.10;74.20;;;;;;5041709;28;20857;-80
2022/04/13 01:45:50;;;;;;;8.67;3.93;;;13.10;74.20;;;;;;5032751;28;20475;-80
2022/04/13 01:48:18;;;;;;;12.60;4.80;;;13.10;74.30;;;;;;5032118;28;20415;-81
2022/04/13 01:50:43;;;;;;;9.10;4.67;;;13.10;74.00;;;;;;5038871;28;20444;-80
2022/04/13 01:53:09;;;;;;;8.27;4.90;;;13.10;74.20;;;;;;5039639;28;20450;-80
2022/04/13 01:55:35;;;;;;;7.87;4.30;;;13.00;74.30;;;;;;5032153;28;20197;-81
2022/04/13 01:58:01;;;;;;;8.90;4.47;;;13.00;74.50;;;;;;5032640;28;20592;-78
2022/04/13 02:00:26;;;;;;;10.73;5.33;;;13.00;74.80;;;;;;5033656;28;20188;-79
2022/04/13 02:02:53;;;;;;;7.80;5.27;;;13.00;74.90;;;;;;5044051;28;20232;-78
2022/04/13 02:05:19;;;;;;;10.73;5.10;;;13.00;74.20;;;;;;5038263;28;20719;-79
2022/04/13 02:07:45;;;;;;;7.40;4.33;;;13.00;74.00;;;;;;5033549;28;20826;-78
2022/04/13 02:10:10;;;;;;;7.83;4.60;;;13.00;74.30;;;;;;5038005;28;20438;-79
2022/04/13 02:12:37;;;;;;;5.93;3.80;;;12.90;74.50;;;;;;5040614;28;20185;-79
2022/04/13 02:15:06;;;;;;;7.00;4.30;;;12.90;74.60;;;;;;5040450;28;20648;-77
2022/04/13 02:17:32;;;;;;;6.10;4.10;;;13.00;74.50;;;;;;5035492;28;20475;-79
2022/04/13 02:19:57;;;;;;;7.60;3.83;;;12.90;74.00;;;;;;5034995;28;20467;-78
2022/04/13 02:22:23;;;;;;;7.83;4.20;;;12.90;73.70;;;;;;5033700;28;20177;-79
2022/04/13 02:24:49;;;;;;;6.07;3.87;;;12.90;73.60;;;;;;5035137;28;20173;-78
2022/04/13 02:27:14;;;;;;;6.17;4.20;;;12.80;73.60;;;;;;5032051;28;20221;-79
2022/04/13 02:29:44;;;;;;;5.50;3.67;;;12.80;73.70;;;;;;5025064;28;20530;-79
2022/04/13 02:32:10;;;;;;;6.70;3.37;;;12.80;73.90;;;;;;5042798;28;20269;-77
2022/04/13 02:34:36;;;;;;;4.40;3.30;;;12.80;73.60;;;;;;5036178;28;20555;-78
2022/04/13 02:37:02;;;;;;;7.67;3.30;;;12.80;73.50;;;;;;5039784;28;20205;-80
2022/04/13 02:39:27;;;;;;;10.93;3.83;;;12.80;73.30;;;;;;5038972;28;20209;-78
2022/04/13 02:41:53;;;;;;;7.50;4.10;;;12.70;73.30;;;;;;5047763;28;20181;-80
2022/04/13 02:44:19;;;;;;;6.17;3.80;;;12.70;73.60;;;;;;5046017;28;20465;-77
2022/04/13 02:46:45;;;;;;;9.83;4.00;;;12.70;74.00;;;;;;5045800;28;20197;-80
2022/04/13 02:49:13;;;;;;;5.80;3.83;;;12.70;74.30;;;;;;5038514;28;20207;-80
2022/04/13 02:51:39;;;;;;;5.43;3.67;;;12.60;74.60;;;;;;5037431;28;20288;-78
2022/04/13 02:54:05;;;;;;;8.70;4.40;;;12.60;74.90;;;;;;5042808;28;20462;-77
2022/04/13 02:56:31;;;;;;;5.73;3.70;;;12.60;75.40;;;;;;5040215;28;20262;-79
2022/04/13 02:58:56;;;;;;;6.13;3.87;;;12.60;75.50;;;;;;5045680;28;20503;-76
2022/04/13 03:01:22;;;;;;;5.47;3.90;;;12.50;75.70;;;;;;5052754;28;20292;-78
2022/04/13 03:03:48;;;;;;;4.80;3.17;;;12.40;75.90;;;;;;5059137;28;20191;-78
2022/04/13 03:06:13;;;;;;;8.83;3.47;;;12.40;75.70;;;;;;5049460;28;20275;-80
2022/04/13 03:08:39;;;;;;;7.00;4.17;;;12.30;75.70;;;;;;5049949;28;20179;-77
2022/04/13 03:11:07;;;;;;;6.80;3.93;;;12.30;75.80;;;;;;5050071;28;20173;-78
2022/04/13 03:13:32;;;;;;;6.20;4.30;;;12.30;76.50;;;;;;5050123;28;20428;-77
2022/04/13 03:15:58;;;;;;;8.60;5.40;;;12.20;77.40;;;;;;5049441;28;20543;-79
2022/04/13 03:18:24;;;;;;;5.40;4.00;;;12.20;78.10;;;;;;5053460;28;20212;-79
2022/04/13 03:20:49;;;;;;;6.13;4.47;;;12.10;78.70;;;;;;5052712;28;20178;-79
2022/04/13 03:23:15;;;;;;;7.30;4.73;;;12.00;79.00;;;;;;5052034;28;20177;-79
2022/04/13 03:25:41;;;;;;;6.10;4.20;;;11.90;79.50;;;;;;5051413;28;20201;-77
2022/04/13 03:28:07;;;;;;;6.90;3.97;;;11.90;79.50;;;;;;5038924;28;20300;-80
2022/04/13 03:30:33;;;;;;;7.23;4.13;;;11.90;79.50;;;;;;5039872;28;20196;-79
2022/04/13 03:32:58;;;;;;;7.10;4.50;;;11.90;79.50;;;;;;5036977;28;20493;-79
2022/04/13 03:35:24;;;;;;;6.00;4.17;;;11.90;79.20;;;;;;5042696;28;20595;-80
2022/04/13 03:37:50;;;;;;;7.57;4.60;;;11.90;79.00;;;;;;5044500;28;20276;-80
2022/04/13 03:40:15;;;;;;;11.60;5.10;;;11.80;79.30;;;;;;5043118;28;20602;-79
2022/04/13 03:42:42;;;;;;;11.27;5.97;;;11.80;79.20;;;;;;5039316;28;20965;-79
2022/04/13 03:45:13;;;;;;;11.03;5.47;;;11.80;79.00;;;;;;5044940;28;20239;-78
2022/04/13 03:47:40;;;;;;;9.60;5.20;;;11.80;79.30;;;;;;5030328;28;20455;-79
2022/04/13 03:50:08;;;;;;;8.67;5.43;;;11.70;79.60;;;;;;5038156;28;20561;-78
2022/04/13 03:52:34;;;;;;;9.07;5.37;;;11.70;79.90;;;;;;5040679;28;20515;-78
2022/04/13 03:55:04;;;;;;;7.20;5.00;;;11.70;80.30;;;;;;5043257;28;20429;-79
2022/04/13 03:57:29;;;;;;;6.93;4.90;;;11.80;80.50;;;;;;5036113;28;20459;-80
2022/04/13 03:59:56;;;;;;;7.60;5.03;;;11.70;80.50;;;;;;5036834;28;20466;-80
2022/04/13 04:02:21;;;;;;;8.03;4.60;;;11.60;80.50;;;;;;5035151;28;20420;-78
2022/04/13 04:04:47;;;;;;;7.83;4.27;;;11.60;81.10;;;;;;5037110;28;20424;-78
2022/04/13 04:07:13;;;;;;;8.93;4.20;;;11.60;81.10;;;;;;5033845;28;20209;-78
2022/04/13 04:09:39;;;;;;;5.87;3.80;;;11.60;80.80;;;;;;5038463;28;21060;-78
2022/04/13 04:12:05;;;;;;;5.83;3.87;;;11.60;80.90;;;;;;5034551;28;20188;-78
2022/04/13 04:14:31;;;;;;;8.20;4.00;;;11.50;80.90;;;;;;5038999;28;20193;-79
2022/04/13 04:16:56;;;;;;;8.43;4.33;;;11.50;81.10;;;;;;5049155;28;20456;-80
2022/04/13 04:19:22;;;;;;;6.70;4.03;;;11.50;81.20;;;;;;5054886;28;20223;-76
2022/04/13 04:21:48;;;;;;;6.20;3.80;;;11.40;81.40;;;;;;5038509;28;20185;-79
2022/04/13 04:24:14;;;;;;;6.23;4.57;;;11.50;81.40;;;;;;5036449;28;20507;-80
2022/04/13 04:26:40;;;;;;;8.73;4.17;;;11.50;81.40;;;;;;5035700;28;20192;-80
2022/04/13 04:29:06;;;;;;;6.87;4.47;;;11.40;81.40;;;;;;5036181;28;20235;-79
2022/04/13 04:31:50;;;;;;;10.17;4.43;;;11.40;81.50;;;;;;5035065;28;20447;-80
2022/04/13 04:34:18;;;;;;;12.50;4.70;;;11.40;81.50;;;;;;5031001;28;20431;-79
2022/04/13 04:36:44;;;;;;;9.17;4.53;;;11.50;81.20;;;;;;5035092;28;20995;-80
2022/04/13 04:39:10;;;;;;;13.73;4.90;;;11.40;81.40;;;;;;5038176;28;20456;-80
2022/04/13 04:41:36;;;;;;;8.53;4.77;;;11.40;81.50;;;;;;5028261;28;20440;-78
2022/04/13 04:44:02;;;;;;;8.03;5.33;;;11.40;81.50;;;;;;5028609;28;20477;-79
2022/04/13 04:46:28;;;;;;;7.33;4.67;;;11.40;81.40;;;;;;5032521;28;21008;-78
2022/04/13 04:48:54;;;;;;;7.80;4.77;;;11.40;81.40;;;;;;5032893;28;20419;-79
2022/04/13 04:51:20;;;;;;;7.83;4.60;;;11.40;81.50;;;;;;5040770;28;20462;-78
2022/04/13 04:53:47;;;;;;;10.80;5.03;;;11.40;81.70;;;;;;5032455;28;20863;-80
2022/04/13 04:56:14;;;;;;;9.00;5.80;;;11.50;80.90;;;;;;5039321;28;20589;-78
2022/04/13 04:58:40;;;;;;;10.70;5.20;;;11.50;80.80;;;;;;5038985;28;20521;-78
2022/04/13 05:01:05;;;;;;;10.20;5.33;;;11.50;80.90;;;;;;5035992;28;20498;-80
2022/04/13 05:03:32;;;;;;;10.30;5.77;;;11.60;80.90;;;;;;5041515;28;20208;-80
2022/04/13 05:05:58;;;;;;;8.63;5.27;;;11.70;80.80;;;;;;5033504;28;20308;-79
2022/04/13 05:08:24;;;;;;;12.47;6.33;;;11.70;80.80;;;;;;5035019;28;20428;-80
2022/04/13 05:10:52;;;;;;;6.83;4.93;;;11.70;80.50;;;;;;5041170;28;20423;-78
2022/04/13 05:13:18;;;;;;;10.80;5.40;;;11.70;80.00;;;;;;5041479;28;20440;-79
2022/04/13 05:15:45;;;;;;;9.70;5.20;;;11.80;80.00;;;;;;5050229;28;20537;-79
2022/04/13 05:18:11;;;;;;;8.30;4.83;;;11.80;80.20;;;;;;5042882;28;20455;-81
2022/04/13 05:20:37;;;;;;;6.10;4.67;;;11.80;80.50;;;;;;5040875;28;20446;-79
2022/04/13 05:23:03;;;;;;;7.87;5.17;;;11.90;80.30;;;;;;5040220;28;20906;-80
2022/04/13 05:25:29;;;;;;;8.63;4.90;;;12.00;79.70;;;;;;5033613;28;20519;-79
2022/04/13 05:27:55;;;;;;;8.67;5.60;;;12.10;79.70;;;;;;5034266;28;20181;-79
2022/04/13 05:30:21;;;;;;;8.53;5.53;;;12.10;79.70;;;;;;5038368;28;20184;-78
2022/04/13 05:32:56;;;;;;;12.07;5.20;;;12.20;79.60;;;;;;5032977;28;20173;-79
2022/04/13 05:35:23;;;;;;;8.03;4.90;;;12.20;79.50;;;;;;5032415;28;20435;-80
2022/04/13 05:37:49;;;;;;;9.07;5.37;;;12.30;79.60;;;;;;5040312;28;20426;-80
2022/04/13 05:40:15;;;;;;;8.23;5.03;;;12.40;79.20;;;;;;5040662;28;20419;-77
2022/04/13 05:42:41;;;;;;;10.13;6.00;;;12.40;79.00;;;;;;5044431;28;20511;-80
2022/04/13 05:45:08;;;;;;;8.17;5.00;;;12.50;78.40;;;;;;5039887;28;21091;-81
2022/04/13 05:47:34;;;;;;;9.87;5.67;;;12.60;78.30;;;;;;5032638;28;20413;-80
2022/04/13 05:50:01;;;;;;;14.47;7.03;;;12.50;77.40;;;;;;5031167;28;20876;-79
2022/04/13 05:52:27;;;;;;;9.60;5.73;;;12.50;77.00;;;;;;5030729;28;20431;-80
2022/04/13 05:54:53;;;;;;;11.83;5.73;;;12.50;76.70;;;;;;5032858;28;20443;-80
2022/04/13 05:57:19;;;;;;;10.67;5.93;;;12.40;77.10;;;;;;5031716;28;20411;-79
2022/04/13 05:59:44;;;;;;;8.43;5.30;;;12.40;77.60;;;;;;5035429;28;20312;-79
2022/04/13 06:02:10;;;;;;;11.03;6.00;;;12.50;77.10;;;;;;5040371;28;20195;-79
2022/04/13 06:04:36;;;;;;;12.63;6.37;;;12.50;76.80;;;;;;5042784;28;20192;-81
2022/04/13 06:07:02;;;;;;;9.07;5.70;;;12.60;77.10;;;;;;5041697;28;20229;-79
2022/04/13 06:09:28;;;;;;;11.37;6.00;;;12.70;77.30;;;;;;5037537;28;20215;-80
2022/04/13 06:11:54;;;;;;;13.03;5.70;;;12.80;77.40;;;;;;5042245;28;20822;-80
2022/04/13 06:14:20;;;;;;;12.47;6.43;;;12.90;77.30;;;;;;5050052;28;20457;-81
2022/04/13 06:16:46;;;;;;;17.70;6.30;;;13.00;75.70;;;;;;5045952;28;20212;-80
2022/04/13 06:19:12;;;;;;;15.57;6.47;;;13.10;75.90;;;;;;5039528;28;20451;-81
2022/04/13 06:21:38;;;;;;;8.77;6.40;;;13.20;75.70;;;;;;5045259;28;20204;-78
2022/04/13 06:24:04;;;;;;;7.97;5.90;;;13.30;75.20;;;;;;5046873;28;20419;-79
2022/04/13 06:26:30;;;;;;;7.57;5.67;;;13.50;74.80;;;;;;5036270;28;20450;-78
2022/04/13 06:28:56;;;;;;;13.00;6.30;;;13.60;74.30;;;;;;5028872;28;20435;-78
2022/04/13 06:31:21;;;;;;;11.37;7.23;;;13.70;74.20;;;;;;5034712;28;20203;-78
2022/04/13 06:33:52;;;;;;;11.70;6.60;;;13.90;73.90;;;;;;5041670;28;20192;-78
2022/04/13 06:36:18;;;;;;;13.50;6.60;;;14.00;73.30;;;;;;5039169;28;20664;-80
2022/04/13 06:38:44;;;;;;;12.40;7.17;;;14.10;72.90;;;;;;5038977;28;20554;-79
2022/04/13 06:41:10;;;;;;;8.90;6.30;;;14.20;72.60;;;;;;5036762;28;20456;-79
2022/04/13 06:43:36;;;;;;;9.50;5.87;;;14.30;71.30;;;;;;5044990;28;20567;-79
2022/04/13 06:46:02;;;;;;;11.10;7.20;;;14.40;71.10;;;;;;5045969;28;20436;-76
2022/04/13 06:48:28;;;;;;;10.87;6.73;;;14.40;70.50;;;;;;5032855;28;20477;-77
2022/04/13 06:50:54;;;;;;;10.60;6.50;;;14.40;70.80;;;;;;5041378;28;20201;-76
2022/04/13 06:53:19;;;;;;;9.50;6.37;;;14.50;70.50;;;;;;5033985;28;20231;-78
2022/04/13 06:55:47;;;;;;;11.47;6.97;;;14.70;70.50;;;;;;5034085;28;20205;-77
2022/04/13 06:58:18;;;;;;;13.20;7.00;;;14.80;69.90;;;;;;5033814;28;20578;-78
2022/04/13 07:00:44;;;;;;;14.27;7.27;;;15.00;69.20;;;;;;5035481;28;20432;-77
2022/04/13 07:03:10;;;;;;;9.47;6.60;;;15.20;68.60;;;;;;5044763;28;20418;-79
2022/04/13 07:05:36;;;;;;;10.23;6.67;;;15.30;67.70;;;;;;5034340;28;20553;-77
2022/04/13 07:08:05;;;;;;;11.57;7.93;;;15.50;67.00;;;;;;5033519;28;20848;-77
2022/04/13 07:10:32;;;;;;;10.37;6.87;;;15.60;66.70;;;;;;5039694;28;20433;-79
2022/04/13 07:12:58;;;;;;;12.13;6.83;;;15.60;66.60;;;;;;5040901;28;20408;-78
2022/04/13 07:15:24;;;;;;;11.90;7.10;;;15.70;66.30;;;;;;5033254;28;20432;-77
2022/04/13 07:17:50;;;;;;;17.17;8.40;;;15.90;65.80;;;;;;5031839;28;20423;-78
2022/04/13 07:20:17;;;;;;;23.17;8.83;;;16.00;65.70;;;;;;5035122;28;20427;-77
2022/04/13 07:22:50;;;;;;;20.13;9.47;;;16.00;65.70;;;;;;5038592;28;20192;-76
2022/04/13 07:25:17;;;;;;;14.70;9.07;;;15.90;66.00;;;;;;5034599;28;20720;-77
2022/04/13 07:27:43;;;;;;;16.23;7.80;;;15.80;66.00;;;;;;5038325;28;20856;-78
2022/04/13 07:30:10;;;;;;;17.13;9.00;;;15.90;66.00;;;;;;5032876;28;20436;-78
2022/04/13 07:32:36;;;;;;;23.53;8.57;;;16.00;65.80;;;;;;5023039;28;20429;-77
2022/04/13 07:35:04;;;;;;;16.97;8.50;;;16.10;65.40;;;;;;5032669;28;20442;-79
2022/04/13 07:37:31;;;;;;;16.37;8.27;;;16.10;65.30;;;;;;5030975;28;20462;-77
2022/04/13 07:39:57;;;;;;;19.03;9.40;;;16.10;65.30;;;;;;5034790;28;20520;-77
2022/04/13 07:42:24;;;;;;;17.33;8.73;;;16.20;65.10;;;;;;5043018;28;20426;-77
2022/04/13 07:44:50;;;;;;;15.90;9.70;;;16.30;65.10;;;;;;5037689;28;20704;-77
2022/04/13 07:47:16;;;;;;;16.67;8.17;;;16.50;64.70;;;;;;5034381;28;20484;-77
2022/04/13 07:49:43;;;;;;;16.80;8.30;;;16.60;64.50;;;;;;5034928;28;20474;-77
2022/04/13 07:52:09;;;;;;;18.53;7.97;;;16.70;64.10;;;;;;5033993;28;20424;-77
2022/04/13 07:54:35;;;;;;;15.90;8.40;;;16.80;63.90;;;;;;5039842;28;20471;-77
2022/04/13 07:57:01;;;;;;;17.40;9.00;;;16.80;63.90;;;;;;5037305;28;20449;-77
2022/04/13 07:59:30;;;;;;;19.90;9.60;;;16.80;64.20;;;;;;5040292;28;20448;-77
2022/04/13 08:01:56;;;;;;;12.23;8.80;;;16.70;64.80;;;;;;5033032;28;20422;-77
2022/04/13 08:04:22;;;;;;;16.27;9.10;;;16.70;65.10;;;;;;5042302;28;20429;-76
2022/04/13 08:06:48;;;;;;;15.77;9.40;;;16.70;65.10;;;;;;5038343;28;21028;-77
2022/04/13 08:09:14;;;;;;;18.73;8.90;;;16.60;65.30;;;;;;5031415;28;20428;-77
2022/04/13 08:11:40;;;;;;;15.90;9.50;;;16.60;65.30;;;;;;5038156;28;20222;-77
2022/04/13 08:14:06;;;;;;;13.30;8.73;;;16.60;65.30;;;;;;5036119;28;20970;-78
2022/04/13 08:16:32;;;;;;;13.43;7.50;;;16.70;65.00;;;;;;5038867;28;20211;-77
2022/04/13 08:18:58;;;;;;;14.60;7.43;;;16.80;64.70;;;;;;5038678;28;20494;-78
2022/04/13 08:21:23;;;;;;;14.90;8.33;;;17.00;64.80;;;;;;5033442;28;20458;-78
2022/04/13 08:23:50;;;;;;;14.73;7.20;;;17.10;64.10;;;;;;5031703;28;20181;-78
2022/04/13 08:26:15;;;;;;;17.43;7.90;;;17.40;63.80;;;;;;5033722;28;20197;-78
2022/04/13 08:28:41;;;;;;;16.20;8.47;;;17.50;63.20;;;;;;5030322;28;20428;-77
2022/04/13 08:31:09;;;;;;;13.07;8.03;;;17.50;62.60;;;;;;5033340;28;20219;-76
2022/04/13 08:33:36;;;;;;;17.03;7.67;;;17.70;62.00;;;;;;5031403;28;20428;-76
2022/04/13 08:36:02;;;;;;;12.70;7.30;;;17.90;61.50;;;;;;5035018;28;20490;-77
2022/04/13 08:38:27;;;;;;;20.37;8.40;;;18.00;61.20;;;;;;5040557;28;20454;-80
2022/04/13 08:41:01;;;;;;;11.53;6.80;;;18.10;60.30;;;;;;5033672;28;20434;-78
2022/04/13 08:43:37;;;;;;;9.83;6.47;;;18.20;58.90;;;;;;5036115;28;20182;-77
2022/04/13 08:46:07;;;;;;;9.80;6.33;;;18.20;58.40;;;;;;5037000;28;21035;-78
2022/04/13 08:48:37;;;;;;;17.20;6.77;;;18.40;57.40;;;;;;5038355;28;20855;-79
2022/04/13 08:51:04;;;;;;;19.47;8.10;;;18.50;57.60;;;;;;5043805;28;20589;-78
2022/04/13 08:53:31;;;;;;;20.80;6.10;;;18.50;57.40;;;;;;5042432;28;20889;-79
2022/04/13 08:55:59;;;;;;;16.90;6.87;;;18.70;56.20;;;;;;5036895;28;20469;-79
2022/04/13 08:59:04;;;;;;;13.70;5.60;;;18.80;55.40;;;;;;5034437;28;20525;-79
2022/04/13 09:02:06;;;;;;;12.07;3.60;;;18.80;53.20;;;;;;5017359;28;20445;-78
2022/04/13 09:04:38;;;;;;;8.13;4.07;;;18.90;47.10;;;;;;5042631;28;20521;-77
2022/04/13 09:07:05;;;;;;;12.13;5.00;;;19.00;48.70;;;;;;5039895;28;20446;-78
2022/04/13 09:09:35;;;;;;;10.40;4.50;;;19.00;51.00;;;;;;5039308;28;20434;-78
2022/04/13 09:12:03;;;;;;;8.80;5.60;;;19.10;50.20;;;;;;5036908;28;20962;-78
2022/04/13 09:14:29;;;;;;;12.90;4.27;;;19.20;49.50;;;;;;5044337;28;20909;-78
2022/04/13 09:16:57;;;;;;;10.47;4.03;;;19.40;49.40;;;;;;5038678;28;20591;-78
2022/04/13 09:19:25;;;;;;;7.63;4.10;;;19.50;47.50;;;;;;5042657;28;20460;-78
2022/04/13 09:21:52;;;;;;;5.83;3.87;;;19.70;47.30;;;;;;5043199;28;20427;-77
2022/04/13 09:24:19;;;;;;;10.00;3.93;;;19.80;46.10;;;;;;5049714;28;20426;-77
2022/04/13 09:26:46;;;;;;;5.40;3.47;;;19.80;44.50;;;;;;5041945;28;20442;-76
2022/04/13 09:29:12;;;;;;;11.33;3.30;;;19.70;44.90;;;;;;5039974;28;20424;-78
2022/04/13 09:31:39;;;;;;;6.07;3.30;;;19.70;44.10;;;;;;5048825;28;20424;-77
2022/04/13 09:34:05;;;;;;;6.50;3.70;;;19.90;44.70;;;;;;5038191;28;20506;-78
2022/04/13 09:36:32;;;;;;;5.23;3.20;;;20.00;44.90;;;;;;5041378;28;20474;-77
2022/04/13 09:38:59;;;;;;;5.83;3.50;;;20.20;44.60;;;;;;5042646;28;20283;-77
2022/04/13 09:41:38;;;;;;;7.87;3.73;;;20.30;43.90;;;;;;5049388;28;20423;-77
2022/04/13 09:44:15;;;;;;;7.50;4.10;;;20.30;45.00;;;;;;5049569;28;20420;-77
2022/04/13 09:46:43;;;;;;;9.70;3.87;;;20.40;45.40;;;;;;5048751;28;20807;-78
2022/04/13 09:49:11;;;;;;;9.33;3.80;;;20.40;43.80;;;;;;5049688;28;20424;-78
2022/04/13 09:51:38;;;;;;;7.23;3.90;;;20.50;44.20;;;;;;5044024;28;21016;-78
2022/04/13 09:54:09;;;;;;;12.87;4.70;;;20.60;44.60;;;;;;5048646;28;20532;-78
2022/04/13 09:56:47;;;;;;;9.97;3.73;;;20.70;44.50;;;;;;5042564;28;20642;-78
2022/04/13 09:59:23;;;;;;;11.23;4.50;;;20.60;44.70;;;;;;5041511;28;20494;-78
2022/04/13 10:01:49;;;;;;;7.73;3.87;;;20.70;45.00;;;;;;5042004;28;20424;-78
2022/04/13 10:04:24;;;;;;;12.87;3.87;;;20.80;45.00;;;;;;5055313;28;20445;-78
2022/04/13 10:06:50;;;;;;;10.00;4.27;;;20.90;44.50;;;;;;5045288;28;20458;-79
2022/04/13 10:09:15;;;;;;;10.67;3.80;;;20.90;44.20;;;;;;5042041;28;20938;-76
2022/04/13 10:11:58;;;;;;;14.20;3.93;;;20.90;42.70;;;;;;5045428;28;21092;-80
2022/04/13 10:14:24;;;;;;;6.57;3.27;;;20.90;42.40;;;;;;5043949;28;20181;-78
2022/04/13 10:16:52;;;;;;;7.20;3.37;;;20.90;43.00;;;;;;5037676;28;20530;-78
2022/04/13 10:19:22;;;;;;;8.97;4.10;;;21.00;42.40;;;;;;5042103;28;20455;-78
2022/04/13 10:21:50;;;;;;;9.33;3.97;;;20.90;43.10;;;;;;5038294;28;20906;-78
2022/04/13 10:24:21;;;;;;;8.57;3.67;;;20.90;43.80;;;;;;5045974;28;20964;-78
2022/04/13 10:27:07;;;;;;;9.00;3.80;;;21.00;43.90;;;;;;5039072;28;20543;-78
2022/04/13 10:29:35;;;;;;;11.77;4.37;;;21.00;44.10;;;;;;5032120;28;20536;-78
2022/04/13 10:32:24;;;;;;;10.37;3.90;;;21.00;44.20;;;;;;5040614;28;20427;-77
2022/04/13 10:34:59;;;;;;;7.93;4.33;;;21.20;43.90;;;;;;5031370;28;20476;-78
2022/04/13 10:37:26;;;;;;;6.87;4.13;;;21.20;44.20;;;;;;5039320;28;20438;-77
2022/04/13 10:39:53;;;;;;;9.20;4.63;;;21.30;44.50;;;;;;5042393;28;20498;-79
2022/04/13 10:42:20;;;;;;;8.37;4.80;;;21.50;44.20;;;;;;5045438;28;20424;-78
2022/04/13 10:44:58;;;;;;;9.93;4.57;;;21.60;45.10;;;;;;5041954;28;20410;-78
2022/04/13 10:48:10;;;;;;;9.93;4.67;;;21.80;45.50;;;;;;5038076;28;20445;-78
2022/04/13 10:50:59;;;;;;;12.30;4.50;;;22.20;45.50;;;;;;5042424;28;20462;-79
2022/04/13 10:53:48;;;;;;;11.10;4.37;;;22.60;44.50;;;;;;5040692;28;20489;-78
2022/04/13 10:56:18;;;;;;;8.03;5.13;;;23.10;43.50;;;;;;5036382;28;20461;-77
2022/04/13 10:59:10;;;;;;;7.93;5.00;;;23.20;43.10;;;;;;5042244;28;20459;-78
2022/04/13 11:01:46;;;;;;;8.50;4.97;;;22.90;43.50;;;;;;5035011;28;20431;-78
2022/04/13 11:04:12;;;;;;;10.63;4.97;;;23.00;43.80;;;;;;5057377;28;20417;-78
2022/04/13 11:06:40;;;;;;;8.90;5.07;;;23.40;43.40;;;;;;5061449;28;20424;-77
2022/04/13 11:09:25;;;;;;;6.87;4.23;;;23.40;43.20;;;;;;5040081;28;20427;-78
2022/04/13 11:11:55;;;;;;;8.30;4.57;;;23.80;43.10;;;;;;5032252;28;20410;-78
2022/04/13 11:14:23;;;;;;;28.73;6.40;;;24.00;41.90;;;;;;5049060;28;20435;-79
2022/04/13 11:17:15;;;;;;;9.33;3.90;;;24.20;40.40;;;;;;5048600;28;20456;-82
2022/04/13 11:19:41;;;;;;;10.03;4.63;;;23.80;40.40;;;;;;5051239;28;20463;-77
2022/04/13 11:22:08;;;;;;;10.00;4.40;;;23.50;41.60;;;;;;5051738;28;20757;-78
2022/04/13 11:24:35;;;;;;;9.13;4.33;;;23.80;41.50;;;;;;5048224;28;20418;-79
2022/04/13 11:27:05;;;;;;;8.73;4.40;;;24.20;40.80;;;;;;5041822;28;20454;-78
2022/04/13 11:29:36;;;;;;;8.13;4.00;;;24.50;39.80;;;;;;5037193;28;20453;-77
2022/04/13 11:32:02;;;;;;;13.50;4.10;;;24.40;39.40;;;;;;5035117;28;20424;-78
2022/04/13 11:34:31;;;;;;;8.00;3.80;;;24.10;39.80;;;;;;5032557;28;20900;-79
2022/04/13 11:37:02;;;;;;;19.60;5.70;;;24.30;39.40;;;;;;5044095;28;20202;-78
2022/04/13 11:39:50;;;;;;;8.40;3.47;;;24.20;38.80;;;;;;5036594;28;20469;-77
2022/04/13 11:42:28;;;;;;;7.40;3.70;;;24.00;39.50;;;;;;5031546;28;20451;-77
2022/04/13 11:45:14;;;;;;;6.60;3.53;;;23.50;40.00;;;;;;5038211;28;20786;-81
2022/04/13 11:47:43;;;;;;;9.50;4.20;;;23.50;40.20;;;;;;5029002;28;20414;-78
2022/04/13 11:50:18;;;;;;;8.13;3.70;;;23.40;39.80;;;;;;5037947;28;20465;-77
2022/04/13 11:52:59;;;;;;;7.00;3.60;;;23.70;39.80;;;;;;5034387;28;20433;-78
2022/04/13 11:55:32;;;;;;;7.70;3.23;;;23.70;39.40;;;;;;5034088;28;20454;-77
2022/04/13 11:58:04;;;;;;;7.13;3.40;;;23.90;39.10;;;;;;5033416;28;20456;-79
2022/04/13 12:01:15;;;;;;;11.03;3.83;;;24.30;38.20;;;;;;5038725;28;20446;-76
2022/04/13 12:03:42;;;;;;;9.50;3.00;;;24.30;37.80;;;;;;5029704;28;20511;-78
2022/04/13 12:06:14;;;;;;;5.17;3.03;;;23.70;38.60;;;;;;5034892;28;20936;-80
2022/04/13 12:08:51;;;;;;;6.27;2.67;;;23.80;37.90;;;;;;5032707;28;20422;-78
2022/04/13 12:11:19;;;;;;;5.43;3.40;;;23.90;38.20;;;;;;5048507;28;20780;-78
2022/04/13 12:13:59;;;;;;;8.20;2.70;;;23.90;37.50;;;;;;5041396;28;20422;-78
2022/04/13 12:16:30;;;;;;;5.83;2.83;;;24.00;37.50;;;;;;5034173;28;20477;-79
2022/04/13 12:19:07;;;;;;;8.40;3.23;;;23.60;37.40;;;;;;5040563;28;20496;-77
2022/04/13 12:21:36;;;;;;;7.97;3.57;;;23.50;37.40;;;;;;5032522;28;20487;-79
2022/04/13 12:24:06;;;;;;;7.87;3.47;;;23.70;37.50;;;;;;5034443;28;20422;-78
2022/04/13 12:26:33;;;;;;;7.17;2.90;;;23.80;36.20;;;;;;5034816;28;20959;-76
2022/04/13 12:29:00;;;;;;;7.07;2.70;;;24.00;36.60;;;;;;5031815;28;20431;-78
2022/04/13 12:31:27;;;;;;;6.33;3.07;;;24.30;35.90;;;;;;5031985;28;20827;-78
2022/04/13 12:34:00;;;;;;;8.00;3.00;;;24.40;36.20;;;;;;5032027;28;20481;-79
2022/04/13 12:36:26;;;;;;;9.83;3.10;;;24.30;36.00;;;;;;5034396;28;20644;-79
2022/04/13 12:38:55;;;;;;;5.93;3.20;;;24.60;36.60;;;;;;5039087;28;20478;-77
2022/04/13 12:41:27;;;;;;;10.13;4.07;;;24.70;35.90;;;;;;5030574;28;20424;-77
2022/04/13 12:44:00;;;;;;;11.50;3.80;;;25.00;35.60;;;;;;5037064;28;20448;-78
2022/04/13 12:46:31;;;;;;;19.63;4.40;;;25.20;35.70;;;;;;5037138;28;20442;-78
2022/04/13 12:48:59;;;;;;;5.60;2.70;;;25.10;35.50;;;;;;5035049;28;20789;-78